createdAt,value
2018-06-11T00:00:49.965Z,83.56
2018-06-11T00:01:49.958Z,83.85
2018-06-11T00:02:49.982Z,84.05
2018-06-11T00:03:49.963Z,84.24
2018-06-11T00:04:49.988Z,84.05
2018-06-11T00:05:49.969Z,84.14
2018-06-11T00:06:49.980Z,84.05
2018-06-11T00:07:49.985Z,84.14
2018-06-11T00:08:49.991Z,84.24
2018-06-11T00:09:50.031Z,83.85
2018-06-11T00:10:49.974Z,83.65
2018-06-11T00:11:50.034Z,83.47
2018-06-11T00:13:06.298Z,84.05
2018-06-11T00:14:06.262Z,83.85
2018-06-11T00:15:06.185Z,83.75
2018-06-11T00:16:06.238Z,84.14
2018-06-11T00:17:06.254Z,83.56
2018-06-11T00:18:06.230Z,84.05
2018-06-11T00:19:06.646Z,83.85
2018-06-11T00:20:06.221Z,84.05
2018-06-11T00:21:06.227Z,84.05
2018-06-11T00:22:06.211Z,84.24
2018-06-11T00:23:06.311Z,84.14
2018-06-11T00:24:06.249Z,83.95
2018-06-11T00:25:06.228Z,84.14
2018-06-11T00:26:06.253Z,84.05
2018-06-11T00:27:06.240Z,84.24
2018-06-11T00:28:06.317Z,84.24
2018-06-11T00:29:06.239Z,84.14
2018-06-11T00:30:06.980Z,83.95
2018-06-11T00:31:06.317Z,84.05
2018-06-11T00:32:06.240Z,84.14
2018-06-11T00:33:06.298Z,83.95
2018-06-11T00:34:06.289Z,83.85
2018-06-11T00:35:06.294Z,84.05
2018-06-11T00:36:06.269Z,84.14
2018-06-11T00:37:09.044Z,83.75
2018-06-11T00:38:07.008Z,83.95
2018-06-11T00:39:06.240Z,84.43
2018-06-11T00:40:06.275Z,84.43
2018-06-11T00:41:06.280Z,83.95
2018-06-11T00:42:06.256Z,83.95
2018-06-11T00:43:22.340Z,83.95
2018-06-11T00:49:59.704Z,84.53
2018-06-11T00:50:59.658Z,84.72
2018-06-11T00:51:59.603Z,84.53
2018-06-11T00:52:59.673Z,84.34
2018-06-11T00:53:59.680Z,84.63
2018-06-11T00:54:59.661Z,84.43
2018-06-11T00:55:59.657Z,84.63
2018-06-11T00:56:59.672Z,84.43
2018-06-11T00:57:59.611Z,84.72
2018-06-11T00:58:59.641Z,85.3
2018-06-11T00:59:59.673Z,84.82
2018-06-11T01:00:59.652Z,84.34
2018-06-11T01:01:59.665Z,84.53
2018-06-11T01:02:59.638Z,84.43
2018-06-11T01:03:59.638Z,84.82
2018-06-11T01:04:59.658Z,84.82
2018-06-11T01:05:59.680Z,84.53
2018-06-11T01:06:59.652Z,84.72
2018-06-11T01:07:59.647Z,84.72
2018-06-11T01:08:59.659Z,84.82
2018-06-11T01:09:59.685Z,84.53
2018-06-11T01:10:59.699Z,84.43
2018-06-11T01:11:59.699Z,84.24
2018-06-11T01:12:59.687Z,84.34
2018-06-11T01:13:59.656Z,84.34
2018-06-11T01:14:59.950Z,84.72
2018-06-11T01:15:59.698Z,84.72
2018-06-11T01:16:59.704Z,84.82
2018-06-11T01:17:59.684Z,84.53
2018-06-11T01:18:59.662Z,84.24
2018-06-11T01:19:59.705Z,84.53
2018-06-11T01:20:59.680Z,84.82
2018-06-11T01:21:59.680Z,85.11
2018-06-11T01:22:59.720Z,84.92
2018-06-11T01:23:59.680Z,85.11
2018-06-11T01:24:59.708Z,85.21
2018-06-11T01:25:59.718Z,85.3
2018-06-11T01:26:59.685Z,85.02
2018-06-11T01:27:59.704Z,85.21
2018-06-11T01:28:59.736Z,85.5
2018-06-11T01:29:59.733Z,85.21
2018-06-11T01:30:59.697Z,85.11
2018-06-11T01:31:59.772Z,85.11
2018-06-11T01:32:59.750Z,85.11
2018-06-11T01:33:59.747Z,84.92
2018-06-11T01:34:59.687Z,85.11
2018-06-11T01:35:59.772Z,85.02
2018-06-11T01:36:59.725Z,84.92
2018-06-11T01:37:59.717Z,84.63
2018-06-11T01:38:59.753Z,84.92
2018-06-11T01:39:59.739Z,85.11
2018-06-11T01:40:59.700Z,85.21
2018-06-11T01:41:59.747Z,84.53
2018-06-11T01:42:59.717Z,84.53
2018-06-11T01:43:59.780Z,84.53
2018-06-11T01:48:28.988Z,84.72
2018-06-11T01:49:28.995Z,85.02
2018-06-11T01:50:28.981Z,84.63
2018-06-11T01:51:28.977Z,84.43
2018-06-11T01:52:28.983Z,85.02
2018-06-11T01:53:28.994Z,84.53
2018-06-11T01:54:28.969Z,84.43
2018-06-11T01:55:29.042Z,84.97
2018-06-11T01:56:28.966Z,84.63
2018-06-11T01:57:28.990Z,85.11
2018-06-11T01:58:28.967Z,84.92
2018-06-11T01:59:28.979Z,84.53
2018-06-11T02:00:28.988Z,84.63
2018-06-11T02:01:28.970Z,85.21
2018-06-11T02:02:29.029Z,85.36
2018-06-11T02:03:28.989Z,84.97
2018-06-11T02:04:28.980Z,85.21
2018-06-11T02:05:29.153Z,84.97
2018-06-11T02:06:28.978Z,85.11
2018-06-11T02:07:28.976Z,85.21
2018-06-11T02:08:28.982Z,84.97
2018-06-11T02:09:29.016Z,84.92
2018-06-11T02:10:28.995Z,85.3
2018-06-11T02:11:28.998Z,85.11
2018-06-11T02:12:29.012Z,84.92
2018-06-11T02:13:28.992Z,84.49
2018-06-11T02:14:28.996Z,84.92
2018-06-11T02:15:29.007Z,84.72
2018-06-11T02:16:28.994Z,84.53
2018-06-11T02:17:28.962Z,84.49
2018-06-11T02:18:29.023Z,84.63
2018-06-11T02:19:29.032Z,84.3
2018-06-11T02:20:28.992Z,84.39
2018-06-11T02:21:29.046Z,84.39
2018-06-11T02:22:29.034Z,84.49
2018-06-11T02:23:28.982Z,84.49
2018-06-11T02:24:28.997Z,84.3
2018-06-11T02:25:29.026Z,84.43
2018-06-11T02:26:29.110Z,83.91
2018-06-11T02:27:29.004Z,84.34
2018-06-11T02:28:29.035Z,84.24
2018-06-11T02:29:29.050Z,84.2
2018-06-11T02:30:29.724Z,84.39
2018-06-11T02:31:29.044Z,84.49
2018-06-11T02:32:29.043Z,84.39
2018-06-11T02:33:28.999Z,84.49
2018-06-11T02:34:29.067Z,84.58
2018-06-11T02:35:29.064Z,85.21
2018-06-11T02:36:29.021Z,85.36
2018-06-11T02:37:29.057Z,85.17
2018-06-11T02:38:29.007Z,84.88
2018-06-11T02:39:29.040Z,84.88
2018-06-11T02:40:29.014Z,85.17
2018-06-11T02:41:29.080Z,85.07
2018-06-11T02:42:29.075Z,85.21
2018-06-11T02:43:29.081Z,85.36
2018-06-11T02:44:29.509Z,85.17
2018-06-11T02:45:29.017Z,85.27
2018-06-11T02:46:29.076Z,85.07
2018-06-11T02:47:29.085Z,85.17
2018-06-11T02:48:29.811Z,84.88
2018-06-11T02:49:29.463Z,85.17
2018-06-11T02:50:29.028Z,85.17
2018-06-11T02:51:29.036Z,85.17
2018-06-11T02:52:29.076Z,85.17
2018-06-11T02:53:29.054Z,84.58
2018-06-11T02:54:29.060Z,84.49
2018-06-11T02:55:29.059Z,84.63
2018-06-11T02:56:29.100Z,84.49
2018-06-11T02:57:29.104Z,84.58
2018-06-11T02:58:29.084Z,84.58
2018-06-11T02:59:29.060Z,84.39
2018-06-11T03:00:29.091Z,85.4
2018-06-11T03:01:29.053Z,85.89
2018-06-11T03:02:29.103Z,85.75
2018-06-11T03:03:29.107Z,85.65
2018-06-11T03:04:29.091Z,85.65
2018-06-11T03:08:56.371Z,85.65
2018-06-11T03:09:56.373Z,85.46
2018-06-11T03:10:56.313Z,85.55
2018-06-11T03:11:56.369Z,85.69
2018-06-11T03:12:56.359Z,85.55
2018-06-11T03:13:56.332Z,85.65
2018-06-11T03:14:56.351Z,85.4
2018-06-11T03:15:56.289Z,85.6
2018-06-11T03:16:56.392Z,85.55
2018-06-11T03:17:56.060Z,85.4
2018-06-11T03:18:56.417Z,85.55
2018-06-11T03:19:56.536Z,85.07
2018-06-11T03:20:56.364Z,85.65
2018-06-11T03:21:56.342Z,85.36
2018-06-11T03:22:56.339Z,85.36
2018-06-11T03:23:56.388Z,85.27
2018-06-11T03:24:56.434Z,85.27
2018-06-11T03:25:56.369Z,85.75
2018-06-11T03:26:56.399Z,85.75
2018-06-11T03:27:56.413Z,85.94
2018-06-11T03:28:56.386Z,85.69
2018-06-11T03:29:56.397Z,85.65
2018-06-11T03:30:56.424Z,85.65
2018-06-11T03:31:56.459Z,85.85
2018-06-11T03:32:56.387Z,85.65
2018-06-11T03:33:58.056Z,85.99
2018-06-11T03:34:56.448Z,85.69
2018-06-11T03:35:56.408Z,85.55
2018-06-11T03:36:56.395Z,85.6
2018-06-11T03:37:56.402Z,85.85
2018-06-11T03:38:56.426Z,85.65
2018-06-11T03:39:56.458Z,85.65
2018-06-11T03:40:56.439Z,85.55
2018-06-11T03:41:56.424Z,85.75
2018-06-11T03:42:56.456Z,85.55
2018-06-11T03:43:56.459Z,85.4
2018-06-11T03:44:56.439Z,85.75
2018-06-11T03:45:56.419Z,85.65
2018-06-11T03:46:56.610Z,85.55
2018-06-11T03:47:56.432Z,85.69
2018-06-11T03:48:56.384Z,85.65
2018-06-11T03:49:56.454Z,85.75
2018-06-11T03:50:56.401Z,85.65
2018-06-11T03:51:56.464Z,85.3
2018-06-11T03:52:56.443Z,85.55
2018-06-11T03:53:56.448Z,85.5
2018-06-11T03:54:59.429Z,85.46
2018-06-11T03:55:56.442Z,85.65
2018-06-11T03:56:56.463Z,85.75
2018-06-11T03:57:56.423Z,85.79
2018-06-11T03:58:56.483Z,85.5
2018-06-11T03:59:56.434Z,85.36
2018-06-11T04:00:56.461Z,85.3
2018-06-11T04:01:56.441Z,85.17
2018-06-11T04:02:56.530Z,85.36
2018-06-11T04:03:56.507Z,85.4
2018-06-11T04:04:56.469Z,85.55
2018-06-11T04:05:56.467Z,85.55
2018-06-11T04:06:56.482Z,85.17
2018-06-11T04:07:56.482Z,85.02
2018-06-11T04:08:56.445Z,85.4
2018-06-11T04:09:56.450Z,85.36
2018-06-11T04:10:56.614Z,85.17
2018-06-11T04:11:56.486Z,85.85
2018-06-11T04:12:56.497Z,85.46
2018-06-11T04:13:56.548Z,85.55
2018-06-11T04:14:56.484Z,85.55
2018-06-11T04:15:56.543Z,85.69
2018-06-11T04:16:56.560Z,85.17
2018-06-11T04:17:56.503Z,85.65
2018-06-11T04:18:56.507Z,85.65
2018-06-11T04:19:56.485Z,85.65
2018-06-11T04:20:56.482Z,85.17
2018-06-11T04:21:56.505Z,85.46
2018-06-11T04:22:56.537Z,85.69
2018-06-11T04:23:56.519Z,85.27
2018-06-11T04:24:56.499Z,85.3
2018-06-11T04:25:56.496Z,85.4
2018-06-11T04:26:56.506Z,85.11
2018-06-11T04:27:57.205Z,85.07
2018-06-11T04:28:56.491Z,84.97
2018-06-11T04:29:56.499Z,85.85
2018-06-11T04:30:56.558Z,85.94
2018-06-11T04:31:56.519Z,86.13
2018-06-11T04:32:56.502Z,86.23
2018-06-11T04:33:56.505Z,85.85
2018-06-11T04:34:56.498Z,85.46
2018-06-11T04:35:56.490Z,85.94
2018-06-11T04:36:56.749Z,85.36
2018-06-11T04:37:56.555Z,85.85
2018-06-11T04:38:56.512Z,85.65
2018-06-11T04:39:59.282Z,85.36
2018-06-11T04:40:56.575Z,85.3
2018-06-11T04:41:56.578Z,85.89
2018-06-11T04:42:56.915Z,86.23
2018-06-11T04:43:59.277Z,85.99
2018-06-11T04:44:56.502Z,86.13
2018-06-11T04:45:56.701Z,86.37
2018-06-11T04:46:57.527Z,86.08
2018-06-11T04:47:56.969Z,85.69
2018-06-11T04:48:56.546Z,86.08
2018-06-11T04:49:56.573Z,86.13
2018-06-11T04:50:56.515Z,86.18
2018-06-11T04:51:56.552Z,86.13
2018-06-11T04:52:56.578Z,86.33
2018-06-11T04:53:56.572Z,85.85
2018-06-11T04:54:56.533Z,86.33
2018-06-11T04:55:56.564Z,86.04
2018-06-11T04:56:56.568Z,85.75
2018-06-11T04:57:56.580Z,86.33
2018-06-11T04:58:56.530Z,86.08
2018-06-11T04:59:56.614Z,85.69
2018-06-11T05:00:57.031Z,86.33
2018-06-11T05:01:56.556Z,86.18
2018-06-11T05:02:56.593Z,85.21
2018-06-11T05:03:56.563Z,85.55
2018-06-11T05:04:56.595Z,85.21
2018-06-11T05:05:56.578Z,85.6
2018-06-11T05:06:56.641Z,85.11
2018-06-11T05:07:56.617Z,84.68
2018-06-11T05:08:56.598Z,84.78
2018-06-11T05:09:56.605Z,84.72
2018-06-11T05:10:56.591Z,84.58
2018-06-11T05:11:56.628Z,84.58
2018-06-11T05:12:56.558Z,84.39
2018-06-11T05:13:56.665Z,84.97
2018-06-11T05:14:57.624Z,84.39
2018-06-11T05:15:56.591Z,84.53
2018-06-11T05:16:56.608Z,84.63
2018-06-11T05:17:56.573Z,84.63
2018-06-11T05:18:57.330Z,84.53
2018-06-11T05:19:56.563Z,84.72
2018-06-11T05:20:56.621Z,84.72
2018-06-11T05:21:56.607Z,84.43
2018-06-11T05:22:56.598Z,84.63
2018-06-11T05:23:56.747Z,84.53
2018-06-11T05:24:56.606Z,84.43
2018-06-11T05:25:56.629Z,84.68
2018-06-11T05:26:56.633Z,84.34
2018-06-11T05:27:56.698Z,84.53
2018-06-11T05:28:56.714Z,84.43
2018-06-11T05:29:56.635Z,84.63
2018-06-11T05:30:56.660Z,84.34
2018-06-11T05:31:56.599Z,84.53
2018-06-11T05:32:56.608Z,84.43
2018-06-11T05:33:56.664Z,84.43
2018-06-11T05:34:57.129Z,84.43
2018-06-11T05:35:56.641Z,84.43
2018-06-11T05:36:56.662Z,84.24
2018-06-11T05:37:56.825Z,84.34
2018-06-11T05:38:56.639Z,84.43
2018-06-11T05:39:56.650Z,84.43
2018-06-11T05:40:56.626Z,84.43
2018-06-11T05:41:56.654Z,84.53
2018-06-11T05:42:56.672Z,84.53
2018-06-11T05:43:56.680Z,84.43
2018-06-11T05:44:56.675Z,84.34
2018-06-11T05:45:56.640Z,84.34
2018-06-11T05:46:56.687Z,84.05
2018-06-11T05:47:56.714Z,83.95
2018-06-11T05:48:56.651Z,83.95
2018-06-11T05:50:01.421Z,84.24
2018-06-11T05:51:56.640Z,84.24
2018-06-11T05:52:56.672Z,84.24
2018-06-11T05:53:56.732Z,83.95
2018-06-11T05:54:56.666Z,84.24
2018-06-11T05:55:56.631Z,83.95
2018-06-11T05:56:56.689Z,83.75
2018-06-11T05:57:56.661Z,83.95
2018-06-11T05:58:56.667Z,84.05
2018-06-11T05:59:56.653Z,83.95
2018-06-11T06:00:56.653Z,84.05
2018-06-11T06:01:56.697Z,84.05
2018-06-11T06:02:56.663Z,84.14
2018-06-11T06:03:56.665Z,84.05
2018-06-11T06:04:56.678Z,84.05
2018-06-11T06:05:56.660Z,84.14
2018-06-11T06:06:56.664Z,84.05
2018-06-11T06:07:56.688Z,83.95
2018-06-11T06:08:56.683Z,83.65
2018-06-11T06:09:56.762Z,84.05
2018-06-11T06:10:56.716Z,84.24
2018-06-11T06:11:56.701Z,84.14
2018-06-11T06:12:56.701Z,84.05
2018-06-11T06:13:56.695Z,84.05
2018-06-11T06:14:56.671Z,84.14
2018-06-11T06:15:56.677Z,84.14
2018-06-11T06:16:56.691Z,84.14
2018-06-11T06:17:56.659Z,83.95
2018-06-11T06:18:56.702Z,84.14
2018-06-11T06:19:56.681Z,83.85
2018-06-11T06:20:56.715Z,84.14
2018-06-11T06:21:56.718Z,83.95
2018-06-11T06:22:56.691Z,84.14
2018-06-11T06:23:56.672Z,83.85
2018-06-11T06:24:56.705Z,83.95
2018-06-11T06:25:56.717Z,83.56
2018-06-11T06:26:56.746Z,83.85
2018-06-11T06:27:56.722Z,83.85
2018-06-11T06:28:56.711Z,84.05
2018-06-11T06:29:56.733Z,83.47
2018-06-11T06:30:56.729Z,83.85
2018-06-11T06:31:56.727Z,83.65
2018-06-11T06:32:56.728Z,83.47
2018-06-11T06:33:56.801Z,83.47
2018-06-11T06:34:56.789Z,83.47
2018-06-11T06:35:56.755Z,83.56
2018-06-11T06:36:56.715Z,83.47
2018-06-11T06:37:56.796Z,83.47
2018-06-11T06:38:56.717Z,83.47
2018-06-11T06:39:56.725Z,83.56
2018-06-11T06:40:56.763Z,83.56
2018-06-11T06:41:56.721Z,83.56
2018-06-11T06:42:56.747Z,83.47
2018-06-11T06:43:56.753Z,83.47
2018-06-11T06:44:56.756Z,83.47
2018-06-11T06:45:56.767Z,83.37
2018-06-11T06:46:56.758Z,83.37
2018-06-11T06:47:56.737Z,83.47
2018-06-11T06:48:56.731Z,83.47
2018-06-11T06:49:56.725Z,83.47
2018-06-11T06:50:56.748Z,83.75
2018-06-11T06:51:56.731Z,83.56
2018-06-11T06:52:56.757Z,83.56
2018-06-11T06:53:56.738Z,83.47
2018-06-11T06:54:56.759Z,83.65
2018-06-11T06:55:56.727Z,83.56
2018-06-11T06:56:56.763Z,83.75
2018-06-11T06:57:56.743Z,83.65
2018-06-11T06:58:56.744Z,83.47
2018-06-11T06:59:56.727Z,83.75
2018-06-11T07:00:56.789Z,83.56
2018-06-11T07:01:56.793Z,83.65
2018-06-11T07:02:56.758Z,83.56
2018-06-11T07:03:56.754Z,83.62
2018-06-11T07:04:56.788Z,83.75
2018-06-11T07:05:56.790Z,83.75
2018-06-11T07:06:56.783Z,83.75
2018-06-11T07:07:56.806Z,83.65
2018-06-11T07:08:56.760Z,83.65
2018-06-11T07:09:56.751Z,83.75
2018-06-11T07:10:56.824Z,83.95
2018-06-11T07:11:56.813Z,83.62
2018-06-11T07:12:56.800Z,83.75
2018-06-11T07:13:56.775Z,83.75
2018-06-11T07:14:56.827Z,83.95
2018-06-11T07:15:56.823Z,83.75
2018-06-11T07:16:56.846Z,83.65
2018-06-11T07:17:56.827Z,83.72
2018-06-11T07:18:56.783Z,83.65
2018-06-11T07:19:56.818Z,83.85
2018-06-11T07:20:56.792Z,83.75
2018-06-11T07:21:56.775Z,83.65
2018-06-11T07:22:56.833Z,83.65
2018-06-11T07:23:56.857Z,83.62
2018-06-11T07:24:56.820Z,83.52
2018-06-11T07:25:56.805Z,83.56
2018-06-11T07:26:56.833Z,83.56
2018-06-11T07:27:56.841Z,83.75
2018-06-11T07:28:56.820Z,83.75
2018-06-11T07:29:56.826Z,83.95
2018-06-11T07:30:56.836Z,83.85
2018-06-11T07:31:56.829Z,83.56
2018-06-11T07:32:56.820Z,83.56
2018-06-11T07:33:56.816Z,83.47
2018-06-11T07:34:56.885Z,83.37
2018-06-11T07:35:56.871Z,83.75
2018-06-11T07:36:56.892Z,83.56
2018-06-11T07:37:56.821Z,83.85
2018-06-11T07:38:56.861Z,83.75
2018-06-11T07:39:56.815Z,83.65
2018-06-11T07:40:56.899Z,83.42
2018-06-11T07:41:56.868Z,83.85
2018-06-11T07:42:56.854Z,83.37
2018-06-11T07:43:56.859Z,83.62
2018-06-11T07:44:56.822Z,83.37
2018-06-11T07:45:56.845Z,83.47
2018-06-11T07:50:24.876Z,83.42
2018-06-11T07:51:24.753Z,83.65
2018-06-11T07:52:24.824Z,83.65
2018-06-11T07:53:24.742Z,83.42
2018-06-11T07:54:24.788Z,83.52
2018-06-11T07:55:24.901Z,83.95
2018-06-11T07:56:24.800Z,83.47
2018-06-11T07:57:24.773Z,83.81
2018-06-11T07:58:24.776Z,83.85
2018-06-11T07:59:24.791Z,83.47
2018-06-11T08:00:25.121Z,83.56
2018-06-11T08:01:24.850Z,83.85
2018-06-11T08:02:24.780Z,83.75
2018-06-11T08:03:24.785Z,83.65
2018-06-11T08:04:24.789Z,83.81
2018-06-11T08:05:24.802Z,83.72
2018-06-11T08:06:24.803Z,83.17
2018-06-11T08:07:24.831Z,83.62
2018-06-11T08:08:24.839Z,83.65
2018-06-11T08:09:24.776Z,83.13
2018-06-11T08:10:24.826Z,83.75
2018-06-11T08:11:24.817Z,83.37
2018-06-11T08:12:24.827Z,83.13
2018-06-11T08:13:24.899Z,83.65
2018-06-11T08:14:24.831Z,83.37
2018-06-11T08:15:24.842Z,83.13
2018-06-11T08:16:24.814Z,83.17
2018-06-11T08:17:24.821Z,83.17
2018-06-11T08:18:24.826Z,83.33
2018-06-11T08:19:24.789Z,83.23
2018-06-11T08:20:24.824Z,83.52
2018-06-11T08:21:24.829Z,83.33
2018-06-11T08:22:24.810Z,83.17
2018-06-11T08:23:24.817Z,83.47
2018-06-11T08:24:24.790Z,83.33
2018-06-11T08:25:24.861Z,83.47
2018-06-11T08:26:24.828Z,83.27
2018-06-11T08:27:24.897Z,83.56
2018-06-11T08:28:24.820Z,83.23
2018-06-11T08:29:24.822Z,83.42
2018-06-11T08:30:24.936Z,83.37
2018-06-11T08:31:24.810Z,83.23
2018-06-11T08:32:24.847Z,83.33
2018-06-11T08:33:24.877Z,83.52
2018-06-11T08:34:24.816Z,83.52
2018-06-11T08:35:24.811Z,83.33
2018-06-11T08:36:24.872Z,83.52
2018-06-11T08:37:24.850Z,83.37
2018-06-11T08:38:24.856Z,83.52
2018-06-11T08:39:24.847Z,83.56
2018-06-11T08:40:24.880Z,83.27
2018-06-11T08:41:24.829Z,83.56
2018-06-11T08:42:24.906Z,83.37
2018-06-11T08:43:24.875Z,82.98
2018-06-11T08:44:24.924Z,83.52
2018-06-11T08:45:24.928Z,83.47
2018-06-11T08:46:25.013Z,83.27
2018-06-11T08:47:24.880Z,83.27
2018-06-11T08:48:24.867Z,83.17
2018-06-11T08:49:24.882Z,83.27
2018-06-11T08:50:24.885Z,83.17
2018-06-11T08:51:24.928Z,83.47
2018-06-11T08:52:24.895Z,83.23
2018-06-11T08:53:24.864Z,83.37
2018-06-11T08:54:24.883Z,83.03
2018-06-11T08:55:24.915Z,83.13
2018-06-11T08:56:24.875Z,83.23
2018-06-11T08:57:24.887Z,83.17
2018-06-11T08:58:24.889Z,83.27
2018-06-11T08:59:24.926Z,83.17
2018-06-11T09:00:24.874Z,83.27
2018-06-11T09:01:24.910Z,83.03
2018-06-11T09:02:24.912Z,83.13
2018-06-11T09:03:24.919Z,83.07
2018-06-11T09:04:24.904Z,82.98
2018-06-11T09:05:24.910Z,82.98
2018-06-11T09:06:24.944Z,83.37
2018-06-11T09:07:24.920Z,83.33
2018-06-11T09:08:24.952Z,83.27
2018-06-11T09:09:24.915Z,83.37
2018-06-11T09:10:24.920Z,83.27
2018-06-11T09:11:24.954Z,83.27
2018-06-11T09:12:24.932Z,83.13
2018-06-11T09:13:24.942Z,83.17
2018-06-11T09:14:24.923Z,83.37
2018-06-11T09:15:24.966Z,83.37
2018-06-11T09:16:24.905Z,83.37
2018-06-11T09:17:24.956Z,83.27
2018-06-11T09:18:25.193Z,83.56
2018-06-11T09:19:24.962Z,83.33
2018-06-11T09:20:24.981Z,83.27
2018-06-11T09:21:24.936Z,82.88
2018-06-11T09:22:24.974Z,82.84
2018-06-11T09:23:24.931Z,82.84
2018-06-11T09:24:25.003Z,82.88
2018-06-11T09:25:24.955Z,83.03
2018-06-11T09:26:25.008Z,82.78
2018-06-11T09:27:24.966Z,82.69
2018-06-11T09:28:24.974Z,83.07
2018-06-11T09:29:24.980Z,82.78
2018-06-11T09:30:24.970Z,83.07
2018-06-11T09:31:24.955Z,82.69
2018-06-11T09:32:24.975Z,82.98
2018-06-11T09:33:24.982Z,82.98
2018-06-11T09:34:25.020Z,82.98
2018-06-11T09:35:24.976Z,83.07
2018-06-11T09:36:24.968Z,83.03
2018-06-11T09:37:25.022Z,82.98
2018-06-11T09:38:24.972Z,83.07
2018-06-11T09:39:24.985Z,82.94
2018-06-11T09:40:24.974Z,82.94
2018-06-11T09:41:24.968Z,83.07
2018-06-11T09:42:24.988Z,83.07
2018-06-11T09:43:24.999Z,83.07
2018-06-11T09:44:25.012Z,83.07
2018-06-11T09:45:25.021Z,83.23
2018-06-11T09:46:24.994Z,83.03
2018-06-11T09:47:24.996Z,82.98
2018-06-11T09:48:24.987Z,83.17
2018-06-11T09:49:24.995Z,83.07
2018-06-11T09:50:25.014Z,83.07
2018-06-11T09:51:25.009Z,83.03
2018-06-11T09:52:25.003Z,83.03
2018-06-11T09:53:24.993Z,82.98
2018-06-11T09:54:25.015Z,83.07
2018-06-11T09:55:25.024Z,82.98
2018-06-11T09:56:25.044Z,83.03
2018-06-11T09:57:25.043Z,83.13
2018-06-11T09:58:24.997Z,82.84
2018-06-11T09:59:24.977Z,83.07
2018-06-11T10:00:25.008Z,82.94
2018-06-11T10:01:25.030Z,83.17
2018-06-11T10:02:24.999Z,83.17
2018-06-11T10:03:25.040Z,82.65
2018-06-11T10:04:25.034Z,82.78
2018-06-11T10:05:25.011Z,82.88
2018-06-11T10:06:24.994Z,82.84
2018-06-11T10:07:24.971Z,82.94
2018-06-11T10:08:25.028Z,82.78
2018-06-11T10:09:25.043Z,82.78
2018-06-11T10:10:25.044Z,82.98
2018-06-11T10:11:25.025Z,82.69
2018-06-11T10:12:25.111Z,82.88
2018-06-11T10:13:24.984Z,82.78
2018-06-11T10:14:25.021Z,82.88
2018-06-11T10:15:25.004Z,82.88
2018-06-11T10:16:25.036Z,82.94
2018-06-11T10:17:25.150Z,82.88
2018-06-11T10:18:25.048Z,82.88
2018-06-11T10:19:25.138Z,82.88
2018-06-11T10:20:25.038Z,82.69
2018-06-11T10:21:25.024Z,82.59
2018-06-11T10:22:25.046Z,82.84
2018-06-11T10:23:25.049Z,82.5
2018-06-11T10:24:25.034Z,82.75
2018-06-11T10:25:25.037Z,82.5
2018-06-11T10:26:25.019Z,82.98
2018-06-11T10:27:25.053Z,82.69
2018-06-11T10:28:25.031Z,82.94
2018-06-11T10:29:25.062Z,82.55
2018-06-11T10:30:25.044Z,82.5
2018-06-11T10:31:25.029Z,82.55
2018-06-11T10:32:25.123Z,82.75
2018-06-11T10:33:25.078Z,82.88
2018-06-11T10:34:25.103Z,82.45
2018-06-11T10:35:25.078Z,82.4
2018-06-11T10:36:25.679Z,82.59
2018-06-11T10:37:25.070Z,82.5
2018-06-11T10:38:25.100Z,82.45
2018-06-11T10:39:25.135Z,82.69
2018-06-11T10:40:25.108Z,82.45
2018-06-11T10:41:25.094Z,82.4
2018-06-11T10:42:25.084Z,82.59
2018-06-11T10:43:25.164Z,82.69
2018-06-11T10:44:25.086Z,82.5
2018-06-11T10:45:25.104Z,82.4
2018-06-11T10:46:25.051Z,82.78
2018-06-11T10:47:25.079Z,82.59
2018-06-11T10:48:25.070Z,82.59
2018-06-11T10:49:25.119Z,82.59
2018-06-11T10:50:25.075Z,82.78
2018-06-11T10:51:25.127Z,82.78
2018-06-11T10:52:25.092Z,82.59
2018-06-11T10:53:25.153Z,82.59
2018-06-11T10:54:25.103Z,82.69
2018-06-11T10:55:25.105Z,82.69
2018-06-11T10:56:25.154Z,82.69
2018-06-11T10:57:25.090Z,82.59
2018-06-11T10:58:25.127Z,82.59
2018-06-11T10:59:25.191Z,82.59
2018-06-11T11:00:25.149Z,82.59
2018-06-11T11:01:25.093Z,82.59
2018-06-11T11:02:25.130Z,82.78
2018-06-11T11:03:25.138Z,82.59
2018-06-11T11:04:25.111Z,82.65
2018-06-11T11:05:25.122Z,82.78
2018-06-11T11:06:25.151Z,82.59
2018-06-11T11:07:25.139Z,82.78
2018-06-11T11:08:25.166Z,82.69
2018-06-11T11:09:25.121Z,82.88
2018-06-11T11:10:25.151Z,82.55
2018-06-11T11:11:25.177Z,82.75
2018-06-11T11:12:25.112Z,82.2
2018-06-11T11:13:25.149Z,82.69
2018-06-11T11:14:25.232Z,82.78
2018-06-11T11:15:25.137Z,82.78
2018-06-11T11:16:25.192Z,82.78
2018-06-11T11:17:25.148Z,82.59
2018-06-11T11:18:25.157Z,82.59
2018-06-11T11:19:25.162Z,82.5
2018-06-11T11:20:25.148Z,82.59
2018-06-11T11:21:25.172Z,82.5
2018-06-11T11:22:25.150Z,82.78
2018-06-11T11:23:25.208Z,82.5
2018-06-11T11:24:25.204Z,82.78
2018-06-11T11:25:25.196Z,82.45
2018-06-11T11:26:25.165Z,82.45
2018-06-11T11:27:25.166Z,82.45
2018-06-11T11:28:25.162Z,82.5
2018-06-11T11:29:25.179Z,82.5
2018-06-11T11:30:25.132Z,82.35
2018-06-11T11:31:25.136Z,82.59
2018-06-11T11:32:25.242Z,82.59
2018-06-11T11:33:25.202Z,82.59
2018-06-11T11:34:25.180Z,82.45
2018-06-11T11:35:25.167Z,82.5
2018-06-11T11:36:25.165Z,82.4
2018-06-11T11:37:25.298Z,82.45
2018-06-11T11:38:25.214Z,82.69
2018-06-11T11:39:25.182Z,82.59
2018-06-11T11:40:25.192Z,82.59
2018-06-11T11:41:25.197Z,82.75
2018-06-11T11:42:25.188Z,82.69
2018-06-11T11:43:25.195Z,82.5
2018-06-11T11:44:25.196Z,82.45
2018-06-11T11:45:25.224Z,82.69
2018-06-11T11:46:25.187Z,82.4
2018-06-11T11:47:25.239Z,82.78
2018-06-11T11:48:25.180Z,82.35
2018-06-11T11:49:25.220Z,82.4
2018-06-11T11:50:25.201Z,82.35
2018-06-11T11:51:25.214Z,82.78
2018-06-11T11:52:25.273Z,82.65
2018-06-11T11:53:25.181Z,82.4
2018-06-11T11:54:25.206Z,82.75
2018-06-11T11:55:25.236Z,82.75
2018-06-11T11:56:25.221Z,82.65
2018-06-11T11:57:25.269Z,82.55
2018-06-11T11:58:25.238Z,82.4
2018-06-11T11:59:25.241Z,82.4
2018-06-11T12:00:25.234Z,82.78
2018-06-11T12:01:25.268Z,82.55
2018-06-11T12:02:25.232Z,82.78
2018-06-11T12:03:25.219Z,82.59
2018-06-11T12:04:25.219Z,82.55
2018-06-11T12:05:25.253Z,82.45
2018-06-11T12:06:25.231Z,82.59
2018-06-11T12:07:25.269Z,82.59
2018-06-11T12:08:25.218Z,82.5
2018-06-11T12:09:25.209Z,82.78
2018-06-11T12:12:32.508Z,82.45
2018-06-11T12:12:43.958Z,82.35
2018-06-11T12:13:44.030Z,82.59
2018-06-11T12:14:43.953Z,82.55
2018-06-11T12:15:43.963Z,82.69
2018-06-11T12:16:43.962Z,82.5
2018-06-11T12:17:43.969Z,82.78
2018-06-11T12:18:43.996Z,82.5
2018-06-11T12:19:43.955Z,82.65
2018-06-11T12:20:43.954Z,82.69
2018-06-11T12:21:43.994Z,82.5
2018-06-11T12:22:43.958Z,82.65
2018-06-11T12:23:44.017Z,82.5
2018-06-11T12:24:43.959Z,82.45
2018-06-11T12:25:43.964Z,82.69
2018-06-11T12:26:43.953Z,82.65
2018-06-11T12:27:44.063Z,82.35
2018-06-11T12:28:43.970Z,82.69
2018-06-11T12:29:44.063Z,82.4
2018-06-11T12:30:44.002Z,82.69
2018-06-11T12:31:44.005Z,82.35
2018-06-11T12:32:43.965Z,82.78
2018-06-11T12:33:44.055Z,82.35
2018-06-11T12:34:44.006Z,82.3
2018-06-11T12:35:43.981Z,82.3
2018-06-11T12:36:44.023Z,82.26
2018-06-11T12:37:43.996Z,82.3
2018-06-11T12:38:44.029Z,82.4
2018-06-11T12:39:44.037Z,82.59
2018-06-11T12:40:44.023Z,82.78
2018-06-11T12:41:44.536Z,82.3
2018-06-11T12:42:43.997Z,82.65
2018-06-11T12:43:44.085Z,82.59
2018-06-11T12:44:43.987Z,82.69
2018-06-11T12:45:44.030Z,82.4
2018-06-11T12:46:44.079Z,82.4
2018-06-11T12:47:44.006Z,82.59
2018-06-11T12:48:44.042Z,82.26
2018-06-11T12:49:44.017Z,82.69
2018-06-11T12:50:44.039Z,82.26
2018-06-11T12:51:43.995Z,82.75
2018-06-11T12:52:44.089Z,82.3
2018-06-11T12:53:44.027Z,82.55
2018-06-11T12:54:44.016Z,82.5
2018-06-11T12:55:44.032Z,82.3
2018-06-11T12:56:44.043Z,82.3
2018-06-11T12:57:44.072Z,82.26
2018-06-11T12:58:44.029Z,82.35
2018-06-11T12:59:44.065Z,82.5
2018-06-11T13:00:44.039Z,82.4
2018-06-11T13:01:44.055Z,82.5
2018-06-11T13:02:44.090Z,82.5
2018-06-11T13:03:44.068Z,82.45
2018-06-11T13:04:44.049Z,82.5
2018-06-11T13:05:44.051Z,82.5
2018-06-11T13:06:44.045Z,82.5
2018-06-11T13:07:44.070Z,82.5
2018-06-11T13:08:44.059Z,82.5
2018-06-11T13:09:44.057Z,82.4
2018-06-11T13:10:44.061Z,82.5
2018-06-11T13:11:44.035Z,82.45
2018-06-11T13:12:44.042Z,82.59
2018-06-11T13:13:44.071Z,82.5
2018-06-11T13:14:44.082Z,82.5